Time;durP1;ratioP1;P1;durP2;ratioP2;P2;SDS_P1;SDS_P2;PMS_P1;PMS_P2;Temp;Humidity;BMP_temperature;BMP_pressure;BME280_temperature;BME280_humidity;BME280_pressure;Samples;Min_cycle;Max_cycle;Signal;HPM_P1;HPM_P2
2023/09/10 00:00:56;;;;;;;10.63;8.25;;;18.40;99.90;;;;;;6251550;28;20065;-80
2023/09/10 00:03:57;;;;;;;11.88;8.32;;;18.30;99.90;;;;;;6251335;28;20046;-81
2023/09/10 00:06:59;;;;;;;8.55;7.65;;;18.30;99.90;;;;;;6251619;28;20049;-80
2023/09/10 00:10:00;;;;;;;10.93;8.30;;;18.30;99.90;;;;;;6251580;28;20494;-81
2023/09/10 00:13:03;;;;;;;8.65;7.30;;;18.20;99.90;;;;;;6251578;28;20040;-81
2023/09/10 00:16:06;;;;;;;8.65;7.75;;;18.20;99.90;;;;;;6250984;28;20445;-80
2023/09/10 00:19:11;;;;;;;10.10;8.82;;;18.20;99.90;;;;;;6251259;28;20072;-80
2023/09/10 00:22:13;;;;;;;9.85;8.65;;;18.20;99.90;;;;;;6250763;28;20038;-79
2023/09/10 00:25:15;;;;;;;9.90;7.53;;;18.10;99.90;;;;;;6253276;28;20439;-77
2023/09/10 00:28:16;;;;;;;14.00;9.85;;;18.10;99.90;;;;;;6255402;28;20046;-78
2023/09/10 00:31:19;;;;;;;11.25;9.40;;;18.10;99.90;;;;;;6256192;28;20056;-79
2023/09/10 00:34:21;;;;;;;13.35;9.73;;;18.00;99.90;;;;;;6255412;28;20042;-78
2023/09/10 00:37:23;;;;;;;9.57;7.70;;;18.00;99.90;;;;;;6252707;28;20055;-79
2023/09/10 00:40:25;;;;;;;9.18;8.20;;;18.00;99.90;;;;;;6254583;28;20041;-78
2023/09/10 00:43:26;;;;;;;10.05;7.63;;;17.90;99.90;;;;;;6252169;28;20038;-78
2023/09/10 00:46:30;;;;;;;11.95;7.35;;;17.90;99.90;;;;;;6255574;28;20138;-79
2023/09/10 00:49:32;;;;;;;11.50;8.30;;;17.90;99.90;;;;;;6255659;28;20084;-79
2023/09/10 00:52:36;;;;;;;11.88;8.50;;;17.80;99.90;;;;;;6257013;28;20402;-79
2023/09/10 00:55:38;;;;;;;10.85;8.23;;;17.80;99.90;;;;;;6249593;28;20068;-78
2023/09/10 00:58:40;;;;;;;11.18;8.73;;;17.80;99.90;;;;;;6256396;28;20041;-78
2023/09/10 01:01:43;;;;;;;12.02;9.23;;;17.70;99.90;;;;;;6257645;28;20053;-78
2023/09/10 01:04:44;;;;;;;10.15;8.88;;;17.60;99.90;;;;;;6256151;28;20045;-79
2023/09/10 01:07:46;;;;;;;16.08;8.82;;;17.60;99.90;;;;;;6256780;28;20055;-79
2023/09/10 01:10:58;;;;;;;9.90;8.32;;;17.50;99.90;;;;;;6258211;28;20045;-78
2023/09/10 01:14:11;;;;;;;11.32;8.68;;;17.50;99.90;;;;;;6260293;28;20056;-79
2023/09/10 01:17:22;;;;;;;10.95;9.13;;;17.40;99.90;;;;;;6259510;28;20049;-78
2023/09/10 01:21:04;;;;;;;14.45;8.60;;;17.30;99.90;;;;;;6258447;28;20611;-79
2023/09/10 01:24:14;;;;;;;8.40;7.40;;;17.30;99.90;;;;;;6238418;28;20426;-78
2023/09/10 01:27:17;;;;;;;10.18;8.70;;;17.30;99.90;;;;;;6257831;28;20087;-79
2023/09/10 01:30:19;;;;;;;9.90;8.30;;;17.30;99.90;;;;;;6258969;28;20200;-79
2023/09/10 01:33:28;;;;;;;8.93;7.40;;;17.30;99.90;;;;;;6257978;28;20051;-79
2023/09/10 01:36:35;;;;;;;9.38;8.48;;;17.30;99.90;;;;;;6258198;28;20046;-78
2023/09/10 01:39:41;;;;;;;10.07;7.90;;;17.30;99.90;;;;;;6258085;28;20046;-79
2023/09/10 01:42:48;;;;;;;8.85;7.88;;;17.30;99.90;;;;;;6250226;28;20049;-79
2023/09/10 01:45:50;;;;;;;11.97;10.77;;;17.30;99.90;;;;;;6256194;28;20522;-79
2023/09/10 01:48:52;;;;;;;9.13;8.23;;;17.30;99.90;;;;;;6258102;28;20048;-79
2023/09/10 01:51:54;;;;;;;9.52;8.52;;;17.30;99.90;;;;;;6258102;28;20053;-79
2023/09/10 01:54:55;;;;;;;10.18;9.10;;;17.20;99.90;;;;;;6258784;28;20056;-80
2023/09/10 01:57:59;;;;;;;9.63;8.55;;;17.20;99.90;;;;;;6257360;28;20052;-78
2023/09/10 02:01:01;;;;;;;9.75;8.02;;;17.20;99.90;;;;;;6258370;28;20060;-78
2023/09/10 02:04:03;;;;;;;8.60;7.68;;;17.20;99.90;;;;;;6258674;28;20071;-79
2023/09/10 02:07:05;;;;;;;9.73;8.73;;;17.10;99.90;;;;;;6260020;28;20052;-79
2023/09/10 02:10:08;;;;;;;9.00;7.63;;;17.10;99.90;;;;;;6259451;28;20055;-79
2023/09/10 02:13:11;;;;;;;10.65;8.25;;;17.10;99.90;;;;;;6257089;28;20052;-78
2023/09/10 02:16:13;;;;;;;9.02;8.05;;;17.00;99.90;;;;;;6259166;28;20049;-79
2023/09/10 02:19:15;;;;;;;12.63;8.15;;;17.00;99.90;;;;;;6259132;28;20420;-79
2023/09/10 02:22:16;;;;;;;10.70;8.27;;;17.00;99.90;;;;;;6258700;28;20048;-78
2023/09/10 02:25:18;;;;;;;10.60;8.77;;;17.00;99.90;;;;;;6258010;28;20045;-79
2023/09/10 02:28:24;;;;;;;9.93;8.93;;;16.90;99.90;;;;;;6258524;28;20055;-79
2023/09/10 02:31:26;;;;;;;8.30;7.50;;;16.90;99.90;;;;;;6257398;28;20037;-78
2023/09/10 02:34:27;;;;;;;11.50;9.88;;;16.90;99.90;;;;;;6257739;28;20042;-78
2023/09/10 02:37:29;;;;;;;9.23;7.55;;;16.80;99.90;;;;;;6255545;28;20410;-78
2023/09/10 02:40:31;;;;;;;8.98;8.05;;;16.80;99.90;;;;;;6259711;28;20046;-79
2023/09/10 02:43:34;;;;;;;8.75;7.78;;;16.80;99.90;;;;;;6258912;28;20462;-78
2023/09/10 02:46:35;;;;;;;10.23;8.20;;;16.70;99.90;;;;;;6261377;28;20041;-77
2023/09/10 02:49:37;;;;;;;14.00;8.05;;;16.70;99.90;;;;;;6258710;28;20044;-77
2023/09/10 02:52:40;;;;;;;10.90;7.22;;;16.70;99.90;;;;;;6259265;28;20417;-78
2023/09/10 02:55:41;;;;;;;10.95;8.98;;;16.50;99.90;;;;;;6261561;28;20049;-79
2023/09/10 02:58:44;;;;;;;12.05;9.35;;;16.50;99.90;;;;;;6258712;28;20046;-78
2023/09/10 03:01:47;;;;;;;8.70;7.85;;;16.40;99.90;;;;;;6251965;28;20494;-79
2023/09/10 03:04:49;;;;;;;9.90;8.80;;;16.40;99.90;;;;;;6263566;28;20113;-79
2023/09/10 03:07:52;;;;;;;9.93;8.60;;;16.40;99.90;;;;;;6261991;28;20049;-78
2023/09/10 03:10:54;;;;;;;12.38;9.70;;;16.30;99.90;;;;;;6263735;28;20068;-78
2023/09/10 03:13:57;;;;;;;9.90;8.73;;;16.30;99.90;;;;;;6262949;28;20041;-80
2023/09/10 03:16:59;;;;;;;14.07;10.98;;;16.30;99.90;;;;;;6264004;28;20080;-79
2023/09/10 03:20:04;;;;;;;12.15;8.70;;;16.30;99.90;;;;;;6264462;28;20561;-79
2023/09/10 03:23:06;;;;;;;10.10;8.48;;;16.20;99.90;;;;;;6263733;28;20061;-80
2023/09/10 03:26:12;;;;;;;10.38;9.15;;;16.30;99.90;;;;;;6263291;28;20049;-78
2023/09/10 03:29:15;;;;;;;14.52;10.27;;;16.30;99.90;;;;;;6263415;28;20049;-79
2023/09/10 03:32:17;;;;;;;12.75;9.68;;;16.30;99.90;;;;;;6263308;28;20046;-79
2023/09/10 03:35:18;;;;;;;10.80;9.48;;;16.30;99.90;;;;;;6262534;28;20045;-79
2023/09/10 03:38:20;;;;;;;10.52;8.25;;;16.20;99.90;;;;;;6263612;28;20056;-78
2023/09/10 03:41:22;;;;;;;11.55;10.07;;;16.10;99.90;;;;;;6262554;28;20049;-80
2023/09/10 03:44:25;;;;;;;10.80;9.63;;;16.10;99.90;;;;;;6262949;28;20049;-79
2023/09/10 03:47:28;;;;;;;9.02;8.02;;;16.10;99.90;;;;;;6263572;28;20105;-79
2023/09/10 03:50:29;;;;;;;10.73;8.57;;;16.10;99.90;;;;;;6262314;28;20045;-80
2023/09/10 03:53:31;;;;;;;8.98;7.65;;;16.10;99.90;;;;;;6262404;28;20060;-79
2023/09/10 03:56:33;;;;;;;9.70;8.40;;;16.00;99.90;;;;;;6263838;28;20051;-79
2023/09/10 03:59:36;;;;;;;10.38;8.95;;;16.00;99.90;;;;;;6264062;28;20049;-79
2023/09/10 04:02:37;;;;;;;9.73;8.52;;;15.90;99.90;;;;;;6262249;28;20064;-79
2023/09/10 04:05:39;;;;;;;9.25;8.35;;;16.00;99.90;;;;;;6263582;28;20077;-80
2023/09/10 04:08:41;;;;;;;11.18;8.70;;;16.00;99.90;;;;;;6263991;28;20041;-79
2023/09/10 04:11:43;;;;;;;9.15;8.20;;;16.00;99.90;;;;;;6262655;28;20061;-80
2023/09/10 04:14:46;;;;;;;10.80;7.72;;;15.90;99.90;;;;;;6264427;28;20044;-79
2023/09/10 04:17:47;;;;;;;11.23;8.90;;;15.90;99.90;;;;;;6260224;28;20053;-80
2023/09/10 04:20:49;;;;;;;9.07;8.18;;;15.80;99.90;;;;;;6261723;28;20049;-79
2023/09/10 04:23:51;;;;;;;10.65;8.38;;;15.70;99.90;;;;;;6261610;28;20055;-79
2023/09/10 04:26:52;;;;;;;11.13;8.57;;;15.70;99.90;;;;;;6262767;28;20045;-79
2023/09/10 04:29:57;;;;;;;12.75;9.57;;;15.60;99.90;;;;;;6261733;28;20160;-77
2023/09/10 04:32:59;;;;;;;10.38;8.32;;;15.60;99.90;;;;;;6262560;28;20083;-78
2023/09/10 04:36:01;;;;;;;8.68;7.80;;;15.50;99.90;;;;;;6256267;28;20050;-79
2023/09/10 04:39:08;;;;;;;12.00;9.75;;;15.60;99.90;;;;;;6255624;28;20055;-79
2023/09/10 04:42:09;;;;;;;12.30;9.65;;;15.60;99.90;;;;;;6256409;28;20045;-78
2023/09/10 04:45:12;;;;;;;11.30;8.23;;;15.60;99.90;;;;;;6257241;28;20097;-79
2023/09/10 04:48:14;;;;;;;12.15;8.75;;;15.60;99.90;;;;;;6258927;28;20041;-79
2023/09/10 04:51:16;;;;;;;10.95;8.32;;;15.60;99.90;;;;;;6258371;28;20049;-80
2023/09/10 04:54:18;;;;;;;10.40;9.35;;;15.60;99.90;;;;;;6258289;28;20045;-79
2023/09/10 04:57:19;;;;;;;10.18;9.02;;;15.60;99.90;;;;;;6256875;28;20050;-79
2023/09/10 05:00:22;;;;;;;10.57;8.90;;;15.60;99.90;;;;;;6256970;28;20128;-78
2023/09/10 05:03:24;;;;;;;9.90;7.93;;;15.60;99.90;;;;;;6258163;28;20101;-79
2023/09/10 05:06:26;;;;;;;10.90;8.93;;;15.60;99.90;;;;;;6258154;28;20112;-80
2023/09/10 05:09:27;;;;;;;10.68;8.43;;;15.60;99.90;;;;;;6262722;28;20047;-80
2023/09/10 05:12:29;;;;;;;10.32;9.27;;;15.60;99.90;;;;;;6264143;28;20044;-80
2023/09/10 05:15:32;;;;;;;10.00;8.18;;;15.60;99.90;;;;;;6263822;28;20045;-79
2023/09/10 05:18:34;;;;;;;13.82;9.25;;;15.60;99.90;;;;;;6255222;28;20052;-79
2023/09/10 05:21:35;;;;;;;10.95;9.80;;;15.60;99.90;;;;;;6255989;28;20048;-79
2023/09/10 05:24:37;;;;;;;8.10;7.25;;;15.60;99.90;;;;;;6255210;28;20052;-80
2023/09/10 05:27:39;;;;;;;16.35;11.05;;;15.70;99.90;;;;;;6256783;28;20052;-80
2023/09/10 05:30:42;;;;;;;14.93;9.35;;;15.80;99.90;;;;;;6255840;28;20147;-79
2023/09/10 05:33:44;;;;;;;11.07;8.88;;;15.80;99.90;;;;;;6255153;28;20049;-79
2023/09/10 05:36:45;;;;;;;11.25;8.02;;;15.90;99.90;;;;;;6253569;28;20049;-79
2023/09/10 05:39:47;;;;;;;10.35;9.27;;;15.90;99.90;;;;;;6254351;28;20045;-79
2023/09/10 05:42:49;;;;;;;16.73;10.98;;;16.00;99.90;;;;;;6255370;28;20045;-79
2023/09/10 05:45:55;;;;;;;9.35;7.93;;;16.10;99.90;;;;;;6256144;28;20371;-80
2023/09/10 05:48:57;;;;;;;10.00;7.88;;;16.30;99.90;;;;;;6247811;28;20051;-79
2023/09/10 05:51:58;;;;;;;8.73;7.60;;;16.50;99.90;;;;;;6255038;28;20057;-79
2023/09/10 05:55:00;;;;;;;10.13;7.40;;;16.70;99.90;;;;;;6256951;28;20056;-80
2023/09/10 05:58:02;;;;;;;8.98;7.55;;;16.90;99.90;;;;;;6255085;28;20055;-79
2023/09/10 06:01:05;;;;;;;10.18;8.48;;;17.20;99.90;;;;;;6255189;28;20054;-80
2023/09/10 06:04:06;;;;;;;8.68;7.43;;;17.30;99.90;;;;;;6255180;28;20041;-80
2023/09/10 06:07:08;;;;;;;8.30;7.15;;;17.60;99.90;;;;;;6255098;28;20053;-81
2023/09/10 06:10:10;;;;;;;8.82;7.93;;;17.70;99.90;;;;;;6251757;28;20041;-80
2023/09/10 06:13:12;;;;;;;9.18;7.38;;;17.90;99.90;;;;;;6253930;28;20401;-79
2023/09/10 06:16:15;;;;;;;9.57;7.88;;;18.00;99.90;;;;;;6256930;28;20196;-79
2023/09/10 06:19:16;;;;;;;6.97;6.28;;;18.20;99.90;;;;;;6256722;28;20156;-80
2023/09/10 06:22:18;;;;;;;7.45;6.50;;;18.50;99.90;;;;;;6258911;28;20042;-80
2023/09/10 06:25:20;;;;;;;8.90;7.43;;;18.70;99.90;;;;;;6258332;28;20044;-80
2023/09/10 06:28:24;;;;;;;8.68;7.32;;;18.90;99.90;;;;;;6258263;28;20045;-80
2023/09/10 06:31:30;;;;;;;9.60;8.40;;;19.20;99.90;;;;;;6257278;28;20045;-80
2023/09/10 06:34:42;;;;;;;7.65;6.85;;;19.50;99.90;;;;;;6256987;28;20041;-80
2023/09/10 06:37:44;;;;;;;6.90;6.30;;;19.90;99.90;;;;;;6258057;28;20045;-79
2023/09/10 06:40:46;;;;;;;10.43;8.20;;;20.10;99.90;;;;;;6258928;28;20045;-80
2023/09/10 06:43:48;;;;;;;9.85;7.20;;;20.30;99.90;;;;;;6237498;28;20054;-81
2023/09/10 06:46:51;;;;;;;9.13;6.80;;;20.50;99.90;;;;;;6255266;28;20041;-77
2023/09/10 06:49:52;;;;;;;12.63;8.63;;;20.80;99.90;;;;;;6250365;28;20052;-77
2023/09/10 06:52:54;;;;;;;10.82;9.73;;;21.00;99.90;;;;;;6252948;28;20135;-77
2023/09/10 06:55:56;;;;;;;12.77;8.45;;;21.30;99.90;;;;;;6262013;28;20052;-77
2023/09/10 06:58:58;;;;;;;9.32;8.10;;;21.60;99.90;;;;;;6251929;28;20056;-78
2023/09/10 07:02:01;;;;;;;10.32;8.32;;;21.90;99.90;;;;;;6258309;28;20053;-78
2023/09/10 07:05:03;;;;;;;11.43;8.90;;;22.10;99.90;;;;;;6259708;28;20049;-78
2023/09/10 07:08:06;;;;;;;10.77;8.07;;;22.30;99.90;;;;;;6259506;28;20059;-77
2023/09/10 07:11:07;;;;;;;10.13;6.80;;;22.60;99.90;;;;;;6260138;28;20060;-77
2023/09/10 07:14:09;;;;;;;9.43;8.43;;;22.80;99.90;;;;;;6260778;28;20049;-78
2023/09/10 07:17:12;;;;;;;9.90;7.93;;;23.00;99.90;;;;;;6259253;28;20045;-79
2023/09/10 07:20:14;;;;;;;10.20;7.78;;;23.20;99.90;;;;;;6261387;28;20065;-78
2023/09/10 07:23:16;;;;;;;7.00;6.30;;;23.50;99.90;;;;;;6259714;28;20056;-78
2023/09/10 07:26:17;;;;;;;9.77;7.78;;;23.70;99.90;;;;;;6257307;28;20125;-78
2023/09/10 07:29:19;;;;;;;10.13;7.55;;;24.00;99.90;;;;;;6257594;28;20073;-78
2023/09/10 07:32:22;;;;;;;8.63;7.72;;;24.10;99.90;;;;;;6260006;28;20044;-78
2023/09/10 07:35:24;;;;;;;7.90;6.63;;;24.40;99.90;;;;;;6265470;28;20046;-78
2023/09/10 07:38:25;;;;;;;8.88;7.97;;;24.60;99.90;;;;;;6265856;28;20044;-78
2023/09/10 07:41:27;;;;;;;7.85;7.05;;;24.90;99.90;;;;;;6260594;28;20044;-78
2023/09/10 07:44:29;;;;;;;8.57;6.50;;;25.20;99.70;;;;;;6261499;28;20045;-78
2023/09/10 07:47:33;;;;;;;11.20;7.47;;;25.60;99.30;;;;;;6260717;28;20488;-78
2023/09/10 07:50:35;;;;;;;7.50;6.30;;;25.90;98.30;;;;;;6256667;28;20041;-76
2023/09/10 07:53:36;;;;;;;13.70;6.45;;;26.20;97.80;;;;;;6255555;28;20037;-79
2023/09/10 07:56:38;;;;;;;7.03;6.28;;;26.50;97.20;;;;;;6253320;28;20048;-78
2023/09/10 07:59:40;;;;;;;7.82;5.85;;;26.60;96.80;;;;;;6248959;28;20490;-77
2023/09/10 08:02:43;;;;;;;6.82;5.35;;;26.90;96.70;;;;;;6249868;28;20418;-75
2023/09/10 08:05:44;;;;;;;6.72;6.03;;;27.40;96.00;;;;;;6249079;28;20400;-79
2023/09/10 08:08:46;;;;;;;7.00;5.93;;;27.60;95.30;;;;;;6247659;28;20037;-77
2023/09/10 08:11:48;;;;;;;10.48;7.10;;;27.80;94.90;;;;;;6247500;28;20052;-76
2023/09/10 08:14:50;;;;;;;10.63;6.60;;;28.10;94.00;;;;;;6251572;28;20046;-77
2023/09/10 08:17:55;;;;;;;6.95;5.68;;;28.40;93.00;;;;;;6251975;28;20044;-77
2023/09/10 08:20:57;;;;;;;8.35;5.35;;;28.80;91.90;;;;;;6247216;28;20398;-77
2023/09/10 08:23:58;;;;;;;6.57;5.97;;;29.20;90.80;;;;;;6246719;28;20064;-76
2023/09/10 08:27:03;;;;;;;5.78;5.22;;;29.70;88.90;;;;;;6247984;28;20045;-77
2023/09/10 08:30:06;;;;;;;7.47;6.15;;;30.20;86.30;;;;;;6239326;28;20660;-77
2023/09/10 08:33:09;;;;;;;8.00;5.63;;;30.50;83.70;;;;;;6246918;28;20053;-77
2023/09/10 08:36:11;;;;;;;6.95;6.13;;;30.70;81.40;;;;;;6246411;28;20660;-75
2023/09/10 08:39:12;;;;;;;6.57;5.95;;;30.70;80.00;;;;;;6247283;28;20060;-77
2023/09/10 08:42:21;;;;;;;6.13;5.60;;;30.70;79.20;;;;;;6246270;28;20052;-77
2023/09/10 08:45:23;;;;;;;7.15;6.43;;;30.70;78.20;;;;;;6245931;28;20044;-77
2023/09/10 08:48:29;;;;;;;10.38;5.40;;;30.60;77.80;;;;;;6246959;28;20045;-76
2023/09/10 08:51:32;;;;;;;6.82;5.95;;;30.50;77.80;;;;;;6247213;28;20414;-75
2023/09/10 08:54:34;;;;;;;6.15;5.57;;;30.40;77.70;;;;;;6245272;28;20563;-77
2023/09/10 08:57:38;;;;;;;8.05;7.25;;;30.20;78.10;;;;;;6245373;28;20049;-77
2023/09/10 09:00:40;;;;;;;8.63;6.65;;;30.30;78.10;;;;;;6243609;28;20052;-78
2023/09/10 09:03:43;;;;;;;8.35;5.68;;;30.40;77.70;;;;;;6252445;28;20045;-78
2023/09/10 09:06:49;;;;;;;8.45;6.45;;;30.30;77.30;;;;;;6247532;28;20052;-77
2023/09/10 09:09:54;;;;;;;9.65;6.72;;;30.40;77.30;;;;;;6247310;28;20060;-77
2023/09/10 09:12:59;;;;;;;8.45;6.15;;;30.50;77.00;;;;;;6247198;28;20101;-77
2023/09/10 09:16:03;;;;;;;6.63;6.03;;;30.60;76.70;;;;;;6247125;28;20053;-77
2023/09/10 09:19:11;;;;;;;8.57;6.05;;;30.80;76.20;;;;;;6245432;28;20528;-77
2023/09/10 09:22:20;;;;;;;7.28;5.13;;;31.10;75.60;;;;;;6237379;28;20058;-76
2023/09/10 09:25:22;;;;;;;5.78;5.28;;;31.30;74.80;;;;;;6245323;28;20041;-76
2023/09/10 09:28:24;;;;;;;8.52;6.00;;;31.10;74.80;;;;;;6245688;28;20053;-76
2023/09/10 09:31:27;;;;;;;6.07;5.28;;;31.00;74.90;;;;;;6243956;28;20049;-77
2023/09/10 09:34:30;;;;;;;6.28;5.45;;;31.10;74.00;;;;;;6242335;28;20037;-77
2023/09/10 09:37:32;;;;;;;6.10;5.50;;;31.30;73.30;;;;;;6258749;28;20041;-77
2023/09/10 09:40:36;;;;;;;6.88;6.05;;;31.40;72.80;;;;;;6261320;28;20045;-77
2023/09/10 09:43:37;;;;;;;8.55;5.82;;;31.40;71.80;;;;;;6263421;28;20076;-77
2023/09/10 09:46:39;;;;;;;6.40;5.78;;;31.00;71.10;;;;;;6252637;28;20045;-76
2023/09/10 09:49:46;;;;;;;5.93;5.32;;;30.70;71.30;;;;;;6253450;28;20046;-76
2023/09/10 09:52:51;;;;;;;7.35;5.20;;;30.90;71.10;;;;;;6253110;28;20048;-76
2023/09/10 09:55:55;;;;;;;6.90;6.30;;;31.00;70.90;;;;;;6253147;28;20539;-77
2023/09/10 09:58:58;;;;;;;5.78;5.28;;;31.30;70.40;;;;;;6253898;28;20055;-76
2023/09/10 10:01:59;;;;;;;7.05;6.15;;;31.50;69.40;;;;;;6253228;28;20048;-77
2023/09/10 10:05:03;;;;;;;6.35;5.30;;;31.60;68.70;;;;;;6255392;28;20052;-78
2023/09/10 10:08:05;;;;;;;7.88;6.05;;;31.60;68.70;;;;;;6253873;28;20045;-78
2023/09/10 10:11:07;;;;;;;6.10;5.57;;;31.90;68.10;;;;;;6253861;28;20049;-77
2023/09/10 10:14:10;;;;;;;6.25;5.65;;;32.10;67.30;;;;;;6251879;28;20046;-78
2023/09/10 10:17:12;;;;;;;7.30;5.47;;;32.10;66.60;;;;;;6255463;28;20037;-77
2023/09/10 10:20:16;;;;;;;6.70;6.10;;;32.20;66.20;;;;;;6252750;28;20149;-77
2023/09/10 10:23:18;;;;;;;9.50;5.25;;;32.50;65.40;;;;;;6247186;28;20053;-79
2023/09/10 10:26:21;;;;;;;8.40;5.10;;;32.90;64.90;;;;;;6246218;28;20045;-76
2023/09/10 10:29:23;;;;;;;5.03;4.38;;;33.30;63.10;;;;;;6246741;28;20046;-76
2023/09/10 10:32:30;;;;;;;7.03;5.38;;;33.30;62.10;;;;;;6244317;28;20049;-76
2023/09/10 10:35:43;;;;;;;5.05;4.55;;;33.70;61.40;;;;;;6246452;28;20047;-76
2023/09/10 10:38:46;;;;;;;5.70;5.20;;;34.00;60.10;;;;;;6246319;28;20049;-76
2023/09/10 10:41:53;;;;;;;6.70;5.15;;;34.00;59.20;;;;;;6246253;28;20442;-78
2023/09/10 10:44:58;;;;;;;8.80;5.03;;;33.80;59.40;;;;;;6248638;28;20057;-75
2023/09/10 10:48:04;;;;;;;5.25;4.75;;;33.80;58.50;;;;;;6247017;28;20045;-75
2023/09/10 10:51:11;;;;;;;6.82;4.95;;;33.60;58.40;;;;;;6250840;28;20053;-78
2023/09/10 10:54:13;;;;;;;;;;;33.50;58.40;;;;;;6252132;28;20049;-76
2023/09/10 10:57:15;;;;;;;6.45;4.68;;;33.50;58.90;;;;;;6246088;28;19921;-77
2023/09/10 11:00:17;;;;;;;7.57;4.57;;;33.70;59.00;;;;;;6253213;28;20395;-75
2023/09/10 11:03:21;;;;;;;6.38;4.47;;;33.90;57.90;;;;;;6250578;28;20049;-76
2023/09/10 11:06:24;;;;;;;5.78;5.03;;;33.80;57.80;;;;;;6251126;28;20098;-76
2023/09/10 11:09:35;;;;;;;12.38;5.25;;;34.30;57.80;;;;;;6250872;28;20045;-77
2023/09/10 11:12:37;;;;;;;4.80;4.25;;;34.70;56.30;;;;;;6250393;28;20115;-76
2023/09/10 11:16:16;;;;;;;5.57;3.90;;;35.00;55.40;;;;;;6251250;28;20509;-77
2023/09/10 11:19:43;;;;;;;4.72;4.28;;;35.30;54.30;;;;;;6243341;28;20041;-75
2023/09/10 11:23:04;;;;;;;3.87;3.57;;;35.90;53.50;;;;;;6244867;28;20497;-76
2023/09/10 11:26:31;;;;;;;4.68;4.28;;;36.40;52.70;;;;;;6249514;28;20050;-76
2023/09/10 11:29:36;;;;;;;4.55;4.10;;;36.10;51.50;;;;;;6245832;28;20050;-76
2023/09/10 11:32:39;;;;;;;8.27;3.95;;;35.90;51.40;;;;;;6250201;28;20042;-77
2023/09/10 11:35:40;;;;;;;5.00;3.42;;;35.80;50.60;;;;;;6250977;28;20042;-76
2023/09/10 11:38:42;;;;;;;7.13;4.15;;;35.90;49.20;;;;;;6250381;28;20041;-76
2023/09/10 11:41:45;;;;;;;6.20;3.50;;;35.90;48.40;;;;;;6249886;28;20038;-76
2023/09/10 11:44:47;;;;;;;4.85;4.00;;;36.00;48.30;;;;;;6250503;28;20042;-76
2023/09/10 11:47:51;;;;;;;3.95;3.63;;;36.40;48.00;;;;;;6249751;28;20037;-77
2023/09/10 11:50:55;;;;;;;7.38;4.28;;;36.50;47.80;;;;;;6249878;28;20045;-75
2023/09/10 11:53:58;;;;;;;6.50;4.03;;;36.70;47.80;;;;;;6249770;28;20049;-76
2023/09/10 11:57:00;;;;;;;8.77;4.00;;;36.70;47.30;;;;;;6249994;28;20053;-75
2023/09/10 12:00:03;;;;;;;4.25;3.47;;;36.60;46.60;;;;;;6249372;28;20063;-76
2023/09/10 12:03:06;;;;;;;5.68;3.80;;;36.40;46.50;;;;;;6250001;28;20119;-76
2023/09/10 12:06:08;;;;;;;4.85;3.75;;;36.50;46.90;;;;;;6249065;28;20042;-76
2023/09/10 12:09:10;;;;;;;5.70;3.67;;;37.00;46.40;;;;;;6248533;28;20063;-76
2023/09/10 12:12:16;;;;;;;4.43;3.78;;;37.20;45.80;;;;;;6248042;28;20641;-76
2023/09/10 12:15:18;;;;;;;4.10;3.70;;;37.90;45.20;;;;;;6243644;28;20052;-76
2023/09/10 12:18:22;;;;;;;5.30;3.40;;;38.20;44.90;;;;;;6248309;28;20052;-75
2023/09/10 12:21:25;;;;;;;3.53;3.22;;;38.30;44.70;;;;;;6248537;28;20417;-76
2023/09/10 12:24:26;;;;;;;4.25;3.55;;;38.40;44.20;;;;;;6248422;28;20559;-75
2023/09/10 12:27:28;;;;;;;3.47;3.17;;;38.50;44.50;;;;;;6248142;28;20436;-76
2023/09/10 12:30:30;;;;;;;5.53;3.42;;;39.10;43.80;;;;;;6248286;28;20414;-76
2023/09/10 12:33:33;;;;;;;6.97;3.80;;;39.20;43.20;;;;;;6247580;28;20053;-76
2023/09/10 12:36:36;;;;;;;3.72;3.05;;;39.40;42.30;;;;;;6248656;28;20068;-76
2023/09/10 12:39:40;;;;;;;7.40;3.80;;;39.50;42.10;;;;;;6248981;28;20402;-76
2023/09/10 12:42:41;;;;;;;4.28;3.67;;;39.50;41.80;;;;;;6248257;28;20037;-78
2023/09/10 12:45:43;;;;;;;6.32;4.25;;;39.50;41.90;;;;;;6245444;28;20037;-77
2023/09/10 12:48:47;;;;;;;6.15;4.43;;;39.80;41.70;;;;;;6248289;28;20895;-77
2023/09/10 12:51:48;;;;;;;4.97;3.38;;;40.10;41.50;;;;;;6245929;28;20045;-75
2023/09/10 12:54:50;;;;;;;5.50;3.90;;;40.10;41.60;;;;;;6247363;28;20064;-76
2023/09/10 12:57:53;;;;;;;4.53;3.53;;;40.40;41.70;;;;;;6247582;28;20045;-77
2023/09/10 13:00:56;;;;;;;10.88;4.32;;;40.80;41.30;;;;;;6247577;28;20193;-77
2023/09/10 13:03:59;;;;;;;4.78;4.13;;;41.10;40.80;;;;;;6246434;28;20053;-77
2023/09/10 13:07:01;;;;;;;6.13;3.42;;;41.00;40.70;;;;;;6246558;28;20490;-77
2023/09/10 13:10:03;;;;;;;4.72;3.40;;;41.10;40.70;;;;;;6246115;28;20045;-76
2023/09/10 13:13:07;;;;;;;6.85;3.90;;;41.00;40.70;;;;;;6245563;28;20505;-77
2023/09/10 13:16:08;;;;;;;5.78;5.10;;;40.90;40.40;;;;;;6246014;28;20048;-77
2023/09/10 13:19:11;;;;;;;4.75;3.60;;;40.80;40.40;;;;;;6246751;28;20497;-77
2023/09/10 13:22:13;;;;;;;3.60;3.10;;;40.70;40.00;;;;;;6246853;28;20395;-77
2023/09/10 13:25:15;;;;;;;4.05;3.65;;;40.30;40.10;;;;;;6247833;28;20382;-77
2023/09/10 13:28:17;;;;;;;4.35;2.80;;;40.30;40.20;;;;;;6246035;28;20064;-77
2023/09/10 13:31:18;;;;;;;5.55;3.33;;;40.40;40.10;;;;;;6245644;28;20049;-77
2023/09/10 13:34:21;;;;;;;7.53;3.17;;;40.50;39.90;;;;;;6245520;28;20042;-77
2023/09/10 13:37:23;;;;;;;6.70;3.40;;;40.60;39.20;;;;;;6246758;28;20414;-77
2023/09/10 13:40:25;;;;;;;4.93;3.08;;;40.60;38.90;;;;;;6245149;28;20171;-77
2023/09/10 13:43:28;;;;;;;4.65;2.88;;;40.60;38.70;;;;;;6245793;28;20053;-76
2023/09/10 13:46:29;;;;;;;4.22;2.50;;;40.70;38.50;;;;;;6245117;28;20495;-78
2023/09/10 13:49:32;;;;;;;3.60;2.95;;;40.70;38.40;;;;;;6247193;28;20048;-78
2023/09/10 13:52:34;;;;;;;5.00;2.90;;;40.80;38.20;;;;;;6244905;28;20053;-76
2023/09/10 13:55:36;;;;;;;5.28;2.72;;;41.10;37.60;;;;;;6245913;28;20057;-77
2023/09/10 13:58:37;;;;;;;4.15;3.00;;;41.30;37.50;;;;;;6244987;28;20049;-76
2023/09/10 14:01:39;;;;;;;12.80;4.90;;;41.40;37.50;;;;;;6245210;28;20045;-77
2023/09/10 14:04:44;;;;;;;10.13;4.43;;;41.40;37.40;;;;;;6244755;28;20053;-77
2023/09/10 14:07:46;;;;;;;7.32;3.33;;;41.40;37.30;;;;;;6245251;28;20049;-77
2023/09/10 14:10:47;;;;;;;4.72;2.50;;;41.50;37.00;;;;;;6245253;28;20048;-77
2023/09/10 14:13:49;;;;;;;6.50;3.20;;;41.50;36.50;;;;;;6244581;28;20049;-78
2023/09/10 14:16:51;;;;;;;5.13;3.05;;;41.80;36.00;;;;;;6244613;28;20045;-77
2023/09/10 14:19:54;;;;;;;4.15;2.92;;;42.20;35.40;;;;;;6244645;28;20049;-77
2023/09/10 14:22:55;;;;;;;6.45;2.97;;;42.10;35.30;;;;;;6244982;28;20057;-77
2023/09/10 14:25:57;;;;;;;9.15;2.85;;;42.00;35.20;;;;;;6243852;28;20061;-77
2023/09/10 14:28:59;;;;;;;5.05;3.85;;;42.20;34.80;;;;;;6242925;28;20046;-77
2023/09/10 14:32:01;;;;;;;9.90;4.22;;;42.30;34.60;;;;;;6244181;28;20053;-77
2023/09/10 14:35:04;;;;;;;7.60;3.20;;;42.70;34.40;;;;;;6249007;28;20494;-77
2023/09/10 14:38:06;;;;;;;7.55;3.17;;;42.30;34.50;;;;;;6248912;28;20045;-77
2023/09/10 14:41:08;;;;;;;3.75;3.28;;;42.20;34.90;;;;;;6249090;28;20045;-77
2023/09/10 14:44:10;;;;;;;6.18;2.45;;;42.10;34.80;;;;;;6248715;28;20068;-77
2023/09/10 14:47:12;;;;;;;9.27;3.03;;;42.00;34.90;;;;;;6250346;28;20091;-77
2023/09/10 14:50:16;;;;;;;4.80;3.90;;;42.20;34.70;;;;;;6248480;28;20275;-77
2023/09/10 14:53:17;;;;;;;3.85;2.80;;;42.20;34.60;;;;;;6248407;28;20046;-76
2023/09/10 14:56:19;;;;;;;4.43;2.80;;;42.00;34.70;;;;;;6249006;28;20041;-76
2023/09/10 14:59:21;;;;;;;4.72;2.55;;;41.50;34.50;;;;;;6247903;28;20128;-77
2023/09/10 15:02:22;;;;;;;6.50;3.25;;;40.80;34.70;;;;;;6241936;28;20490;-77
2023/09/10 15:05:25;;;;;;;8.00;2.92;;;40.20;35.10;;;;;;6248388;28;20071;-76
2023/09/10 15:08:27;;;;;;;4.50;3.58;;;39.30;35.10;;;;;;6241616;28;20501;-77
2023/09/10 15:11:29;;;;;;;5.55;2.90;;;38.20;35.40;;;;;;6248928;28;20056;-77
2023/09/10 15:14:32;;;;;;;3.67;2.63;;;37.60;36.10;;;;;;6249210;28;20060;-77
2023/09/10 15:17:33;;;;;;;5.10;3.08;;;37.20;36.70;;;;;;6248718;28;20048;-76
2023/09/10 15:20:36;;;;;;;5.28;4.05;;;36.90;37.40;;;;;;6248251;28;20426;-78
2023/09/10 15:23:38;;;;;;;3.83;2.97;;;36.60;37.60;;;;;;6249114;28;20425;-76
2023/09/10 15:26:40;;;;;;;7.15;2.95;;;36.40;38.00;;;;;;6246264;28;20041;-75
2023/09/10 15:29:42;;;;;;;4.78;2.85;;;36.00;38.20;;;;;;6248478;28;20053;-76
2023/09/10 15:32:43;;;;;;;6.45;3.00;;;35.70;38.40;;;;;;6251290;28;20041;-77
2023/09/10 15:35:46;;;;;;;3.53;2.97;;;35.30;38.90;;;;;;6243147;28;20060;-76
2023/09/10 15:38:48;;;;;;;4.03;3.10;;;35.00;39.60;;;;;;6245315;28;20041;-74
2023/09/10 15:41:51;;;;;;;3.90;3.03;;;34.80;40.30;;;;;;6247755;28;20045;-76
2023/09/10 15:44:53;;;;;;;5.38;3.78;;;34.50;40.30;;;;;;6247210;28;20042;-75
2023/09/10 15:47:55;;;;;;;4.60;4.15;;;34.20;40.40;;;;;;6247972;28;20417;-75